sensor_id;sensor_type;location;lat;lon;timestamp;temperature;humidity
60723;DHT22;46574;52.818;6.516;2023-12-04T00:01:50;1.40;99.90
60723;DHT22;46574;52.818;6.516;2023-12-04T00:04:16;1.50;99.90
60723;DHT22;46574;52.818;6.516;2023-12-04T00:06:42;1.50;99.90
60723;DHT22;46574;52.818;6.516;2023-12-04T00:09:07;1.40;99.90
60723;DHT22;46574;52.818;6.516;2023-12-04T00:11:33;1.40;99.90
60723;DHT22;46574;52.818;6.516;2023-12-04T00:13:59;1.40;99.90
60723;DHT22;46574;52.818;6.516;2023-12-04T00:16:25;1.40;99.90
60723;DHT22;46574;52.818;6.516;2023-12-04T00:18:51;1.40;99.90
60723;DHT22;46574;52.818;6.516;2023-12-04T00:21:16;1.40;99.90
60723;DHT22;46574;52.818;6.516;2023-12-04T00:23:42;1.50;99.90
60723;DHT22;46574;52.818;6.516;2023-12-04T00:26:08;1.50;99.90
60723;DHT22;46574;52.818;6.516;2023-12-04T00:28:36;1.40;99.90
60723;DHT22;46574;52.818;6.516;2023-12-04T00:31:02;1.40;99.90
60723;DHT22;46574;52.818;6.516;2023-12-04T00:33:28;1.40;99.90
60723;DHT22;46574;52.818;6.516;2023-12-04T00:35:53;1.50;99.90
60723;DHT22;46574;52.818;6.516;2023-12-04T00:38:19;1.50;99.90
60723;DHT22;46574;52.818;6.516;2023-12-04T00:40:45;1.40;99.90
60723;DHT22;46574;52.818;6.516;2023-12-04T00:43:10;1.40;99.90
60723;DHT22;46574;52.818;6.516;2023-12-04T00:45:36;1.40;99.90
60723;DHT22;46574;52.818;6.516;2023-12-04T00:48:02;1.40;99.90
60723;DHT22;46574;52.818;6.516;2023-12-04T00:50:28;1.40;99.90
60723;DHT22;46574;52.818;6.516;2023-12-04T00:52:54;1.40;99.90
60723;DHT22;46574;52.818;6.516;2023-12-04T00:55:20;1.40;99.90
60723;DHT22;46574;52.818;6.516;2023-12-04T00:57:46;1.50;99.90
60723;DHT22;46574;52.818;6.516;2023-12-04T01:00:12;1.50;99.90
60723;DHT22;46574;52.818;6.516;2023-12-04T01:02:38;1.50;99.90
60723;DHT22;46574;52.818;6.516;2023-12-04T01:05:04;1.50;99.90
60723;DHT22;46574;52.818;6.516;2023-12-04T01:07:29;1.40;99.90
60723;DHT22;46574;52.818;6.516;2023-12-04T01:09:55;1.40;99.90
60723;DHT22;46574;52.818;6.516;2023-12-04T01:12:21;1.40;99.90
60723;DHT22;46574;52.818;6.516;2023-12-04T01:14:47;1.40;99.90
60723;DHT22;46574;52.818;6.516;2023-12-04T01:17:13;1.50;99.90
60723;DHT22;46574;52.818;6.516;2023-12-04T01:19:38;1.50;99.90
60723;DHT22;46574;52.818;6.516;2023-12-04T01:22:05;1.50;99.90
60723;DHT22;46574;52.818;6.516;2023-12-04T01:24:31;1.50;99.90
60723;DHT22;46574;52.818;6.516;2023-12-04T01:26:56;1.50;99.90
60723;DHT22;46574;52.818;6.516;2023-12-04T01:29:22;1.50;99.90
60723;DHT22;46574;52.818;6.516;2023-12-04T01:31:48;1.50;99.90
60723;DHT22;46574;52.818;6.516;2023-12-04T01:34:13;1.50;99.90
60723;DHT22;46574;52.818;6.516;2023-12-04T01:36:42;1.50;99.90
60723;DHT22;46574;52.818;6.516;2023-12-04T01:39:08;1.50;99.90
60723;DHT22;46574;52.818;6.516;2023-12-04T01:41:34;1.50;99.90
60723;DHT22;46574;52.818;6.516;2023-12-04T01:43:59;1.50;99.90
60723;DHT22;46574;52.818;6.516;2023-12-04T01:46:25;1.50;99.90
60723;DHT22;46574;52.818;6.516;2023-12-04T01:48:52;1.50;99.90
60723;DHT22;46574;52.818;6.516;2023-12-04T01:51:19;1.50;99.90
60723;DHT22;46574;52.818;6.516;2023-12-04T01:53:46;1.50;99.90
60723;DHT22;46574;52.818;6.516;2023-12-04T01:56:13;1.50;99.90
60723;DHT22;46574;52.818;6.516;2023-12-04T01:58:40;1.50;99.90
60723;DHT22;46574;52.818;6.516;2023-12-04T02:01:06;1.50;99.90
60723;DHT22;46574;52.818;6.516;2023-12-04T02:03:32;1.50;99.90
60723;DHT22;46574;52.818;6.516;2023-12-04T02:06:02;1.50;99.90
60723;DHT22;46574;52.818;6.516;2023-12-04T02:08:29;1.50;99.90
60723;DHT22;46574;52.818;6.516;2023-12-04T02:10:55;1.50;99.90
60723;DHT22;46574;52.818;6.516;2023-12-04T02:13:21;1.50;99.90
60723;DHT22;46574;52.818;6.516;2023-12-04T02:15:49;1.50;99.90
60723;DHT22;46574;52.818;6.516;2023-12-04T02:18:18;1.50;99.90
60723;DHT22;46574;52.818;6.516;2023-12-04T02:20:44;1.60;99.90
60723;DHT22;46574;52.818;6.516;2023-12-04T02:23:09;1.50;99.90
60723;DHT22;46574;52.818;6.516;2023-12-04T02:25:35;1.50;99.90
60723;DHT22;46574;52.818;6.516;2023-12-04T02:28:05;1.50;99.90
60723;DHT22;46574;52.818;6.516;2023-12-04T02:30:32;1.60;99.90
60723;DHT22;46574;52.818;6.516;2023-12-04T02:32:58;1.50;99.90
60723;DHT22;46574;52.818;6.516;2023-12-04T02:35:27;1.50;99.90
60723;DHT22;46574;52.818;6.516;2023-12-04T02:37:54;1.50;99.90
60723;DHT22;46574;52.818;6.516;2023-12-04T02:40:21;1.60;99.90
60723;DHT22;46574;52.818;6.516;2023-12-04T02:42:47;1.60;99.90
60723;DHT22;46574;52.818;6.516;2023-12-04T02:45:12;1.60;99.90
60723;DHT22;46574;52.818;6.516;2023-12-04T02:47:38;1.60;99.90
60723;DHT22;46574;52.818;6.516;2023-12-04T02:50:04;1.60;99.90
60723;DHT22;46574;52.818;6.516;2023-12-04T02:52:30;1.60;99.90
60723;DHT22;46574;52.818;6.516;2023-12-04T02:54:55;1.60;99.90
60723;DHT22;46574;52.818;6.516;2023-12-04T02:57:21;1.60;99.90
60723;DHT22;46574;52.818;6.516;2023-12-04T02:59:48;1.60;99.90
60723;DHT22;46574;52.818;6.516;2023-12-04T03:02:13;1.60;99.90
60723;DHT22;46574;52.818;6.516;2023-12-04T03:04:39;1.60;99.90
60723;DHT22;46574;52.818;6.516;2023-12-04T03:07:04;1.60;99.90
60723;DHT22;46574;52.818;6.516;2023-12-04T03:09:30;1.60;99.90
60723;DHT22;46574;52.818;6.516;2023-12-04T03:11:56;1.60;99.90
60723;DHT22;46574;52.818;6.516;2023-12-04T03:14:21;1.60;99.90
60723;DHT22;46574;52.818;6.516;2023-12-04T03:16:47;1.60;99.90
60723;DHT22;46574;52.818;6.516;2023-12-04T03:19:12;1.60;99.90
60723;DHT22;46574;52.818;6.516;2023-12-04T03:21:38;1.60;99.90
60723;DHT22;46574;52.818;6.516;2023-12-04T03:24:04;1.60;99.90
60723;DHT22;46574;52.818;6.516;2023-12-04T03:26:29;1.60;99.90
60723;DHT22;46574;52.818;6.516;2023-12-04T03:28:55;1.60;99.90
60723;DHT22;46574;52.818;6.516;2023-12-04T03:31:21;1.60;99.90
60723;DHT22;46574;52.818;6.516;2023-12-04T03:33:47;1.60;99.90
60723;DHT22;46574;52.818;6.516;2023-12-04T03:36:12;1.60;99.90
60723;DHT22;46574;52.818;6.516;2023-12-04T03:38:38;1.60;99.90
60723;DHT22;46574;52.818;6.516;2023-12-04T03:41:04;1.60;99.90
60723;DHT22;46574;52.818;6.516;2023-12-04T03:43:29;1.60;99.90
60723;DHT22;46574;52.818;6.516;2023-12-04T03:45:55;1.60;99.90
60723;DHT22;46574;52.818;6.516;2023-12-04T03:48:20;1.60;99.90
60723;DHT22;46574;52.818;6.516;2023-12-04T03:50:46;1.60;99.90
60723;DHT22;46574;52.818;6.516;2023-12-04T03:53:12;1.60;99.90
60723;DHT22;46574;52.818;6.516;2023-12-04T03:55:38;1.60;99.90
60723;DHT22;46574;52.818;6.516;2023-12-04T03:58:03;1.60;99.90
60723;DHT22;46574;52.818;6.516;2023-12-04T04:00:29;1.60;99.90
60723;DHT22;46574;52.818;6.516;2023-12-04T04:02:54;1.60;99.90
60723;DHT22;46574;52.818;6.516;2023-12-04T04:05:20;1.60;99.90
60723;DHT22;46574;52.818;6.516;2023-12-04T04:07:46;1.60;99.90
60723;DHT22;46574;52.818;6.516;2023-12-04T04:10:11;1.60;99.90
60723;DHT22;46574;52.818;6.516;2023-12-04T04:12:37;1.60;99.90
60723;DHT22;46574;52.818;6.516;2023-12-04T04:15:03;1.60;99.90
60723;DHT22;46574;52.818;6.516;2023-12-04T04:17:29;1.60;99.90
60723;DHT22;46574;52.818;6.516;2023-12-04T04:19:55;1.70;99.90
60723;DHT22;46574;52.818;6.516;2023-12-04T04:22:21;1.70;99.90
60723;DHT22;46574;52.818;6.516;2023-12-04T04:24:48;1.60;99.90
60723;DHT22;46574;52.818;6.516;2023-12-04T04:27:14;1.70;99.90
60723;DHT22;46574;52.818;6.516;2023-12-04T04:29:40;1.60;99.90
60723;DHT22;46574;52.818;6.516;2023-12-04T04:32:05;1.70;99.90
60723;DHT22;46574;52.818;6.516;2023-12-04T04:34:31;1.70;99.90
60723;DHT22;46574;52.818;6.516;2023-12-04T04:36:57;1.70;99.90
60723;DHT22;46574;52.818;6.516;2023-12-04T04:39:23;1.60;99.90
60723;DHT22;46574;52.818;6.516;2023-12-04T04:41:49;1.60;99.90
60723;DHT22;46574;52.818;6.516;2023-12-04T04:44:14;1.70;99.90
60723;DHT22;46574;52.818;6.516;2023-12-04T04:46:40;1.70;99.90
60723;DHT22;46574;52.818;6.516;2023-12-04T04:49:06;1.70;99.90
60723;DHT22;46574;52.818;6.516;2023-12-04T04:51:32;1.70;99.90
60723;DHT22;46574;52.818;6.516;2023-12-04T04:54:01;1.70;99.90
60723;DHT22;46574;52.818;6.516;2023-12-04T04:56:27;1.60;99.90
60723;DHT22;46574;52.818;6.516;2023-12-04T04:58:53;1.60;99.90
60723;DHT22;46574;52.818;6.516;2023-12-04T05:01:18;1.60;99.90
60723;DHT22;46574;52.818;6.516;2023-12-04T05:03:44;1.70;99.90
60723;DHT22;46574;52.818;6.516;2023-12-04T05:06:10;1.60;99.90
60723;DHT22;46574;52.818;6.516;2023-12-04T05:08:35;1.70;99.90
60723;DHT22;46574;52.818;6.516;2023-12-04T05:11:01;1.70;99.90
60723;DHT22;46574;52.818;6.516;2023-12-04T05:13:27;1.60;99.90
60723;DHT22;46574;52.818;6.516;2023-12-04T05:15:52;1.60;99.90
60723;DHT22;46574;52.818;6.516;2023-12-04T05:18:18;1.70;99.90
60723;DHT22;46574;52.818;6.516;2023-12-04T05:20:44;1.70;99.90
60723;DHT22;46574;52.818;6.516;2023-12-04T05:23:09;1.70;99.90
60723;DHT22;46574;52.818;6.516;2023-12-04T05:25:35;1.70;99.90
60723;DHT22;46574;52.818;6.516;2023-12-04T05:28:01;1.70;99.90
60723;DHT22;46574;52.818;6.516;2023-12-04T05:30:26;1.70;99.90
60723;DHT22;46574;52.818;6.516;2023-12-04T05:32:52;1.70;99.90
60723;DHT22;46574;52.818;6.516;2023-12-04T05:35:18;1.70;99.90
60723;DHT22;46574;52.818;6.516;2023-12-04T05:37:44;1.70;99.90
60723;DHT22;46574;52.818;6.516;2023-12-04T05:40:10;1.70;99.90
60723;DHT22;46574;52.818;6.516;2023-12-04T05:42:36;1.70;99.90
60723;DHT22;46574;52.818;6.516;2023-12-04T05:45:02;1.70;99.90
60723;DHT22;46574;52.818;6.516;2023-12-04T05:47:28;1.70;99.90
60723;DHT22;46574;52.818;6.516;2023-12-04T05:49:54;1.70;99.90
60723;DHT22;46574;52.818;6.516;2023-12-04T05:52:20;1.70;99.90
60723;DHT22;46574;52.818;6.516;2023-12-04T05:54:45;1.70;99.90
60723;DHT22;46574;52.818;6.516;2023-12-04T05:57:11;1.70;99.90
60723;DHT22;46574;52.818;6.516;2023-12-04T05:59:37;1.70;99.90
60723;DHT22;46574;52.818;6.516;2023-12-04T06:02:02;1.70;99.90
60723;DHT22;46574;52.818;6.516;2023-12-04T06:04:29;1.70;99.90
60723;DHT22;46574;52.818;6.516;2023-12-04T06:06:55;1.70;99.90
60723;DHT22;46574;52.818;6.516;2023-12-04T06:09:21;1.70;99.90
60723;DHT22;46574;52.818;6.516;2023-12-04T06:11:46;1.70;99.90
60723;DHT22;46574;52.818;6.516;2023-12-04T06:14:12;1.70;99.90
60723;DHT22;46574;52.818;6.516;2023-12-04T06:16:38;1.70;99.90
60723;DHT22;46574;52.818;6.516;2023-12-04T06:19:03;1.70;99.90
60723;DHT22;46574;52.818;6.516;2023-12-04T06:21:30;1.60;99.90
60723;DHT22;46574;52.818;6.516;2023-12-04T06:23:56;1.70;99.90
60723;DHT22;46574;52.818;6.516;2023-12-04T06:26:22;1.60;99.90
60723;DHT22;46574;52.818;6.516;2023-12-04T06:28:48;1.60;99.90
60723;DHT22;46574;52.818;6.516;2023-12-04T06:31:14;1.60;99.90
60723;DHT22;46574;52.818;6.516;2023-12-04T06:33:40;1.60;99.90
60723;DHT22;46574;52.818;6.516;2023-12-04T06:36:07;1.50;99.90
60723;DHT22;46574;52.818;6.516;2023-12-04T06:38:33;1.60;99.90
60723;DHT22;46574;52.818;6.516;2023-12-04T06:41:01;1.60;99.90
60723;DHT22;46574;52.818;6.516;2023-12-04T06:43:27;1.60;99.90
60723;DHT22;46574;52.818;6.516;2023-12-04T06:45:53;1.60;99.90
60723;DHT22;46574;52.818;6.516;2023-12-04T06:48:22;1.60;99.90
60723;DHT22;46574;52.818;6.516;2023-12-04T06:50:48;1.60;99.90
60723;DHT22;46574;52.818;6.516;2023-12-04T06:53:14;1.50;99.90
60723;DHT22;46574;52.818;6.516;2023-12-04T06:55:39;1.50;99.90
60723;DHT22;46574;52.818;6.516;2023-12-04T06:58:05;1.50;99.90
60723;DHT22;46574;52.818;6.516;2023-12-04T07:00:30;1.50;99.90
60723;DHT22;46574;52.818;6.516;2023-12-04T07:02:56;1.60;99.90
60723;DHT22;46574;52.818;6.516;2023-12-04T07:05:22;1.50;99.90
60723;DHT22;46574;52.818;6.516;2023-12-04T07:07:47;1.50;99.90
60723;DHT22;46574;52.818;6.516;2023-12-04T07:10:13;1.50;99.90
60723;DHT22;46574;52.818;6.516;2023-12-04T07:12:41;1.50;99.90
60723;DHT22;46574;52.818;6.516;2023-12-04T07:15:08;1.50;99.90
60723;DHT22;46574;52.818;6.516;2023-12-04T07:17:35;1.50;99.90
60723;DHT22;46574;52.818;6.516;2023-12-04T07:20:01;1.50;99.90
60723;DHT22;46574;52.818;6.516;2023-12-04T07:22:26;1.60;99.90
60723;DHT22;46574;52.818;6.516;2023-12-04T07:24:52;1.50;99.90
60723;DHT22;46574;52.818;6.516;2023-12-04T07:27:18;1.50;99.90
60723;DHT22;46574;52.818;6.516;2023-12-04T07:29:43;1.50;99.90
60723;DHT22;46574;52.818;6.516;2023-12-04T07:32:09;1.50;99.90
60723;DHT22;46574;52.818;6.516;2023-12-04T07:34:35;1.60;99.90
60723;DHT22;46574;52.818;6.516;2023-12-04T07:37:00;1.50;99.90
60723;DHT22;46574;52.818;6.516;2023-12-04T07:39:26;1.60;99.90
60723;DHT22;46574;52.818;6.516;2023-12-04T07:41:51;1.60;99.90
60723;DHT22;46574;52.818;6.516;2023-12-04T07:44:18;1.60;99.90
60723;DHT22;46574;52.818;6.516;2023-12-04T07:46:43;1.60;99.90
60723;DHT22;46574;52.818;6.516;2023-12-04T07:49:09;1.60;99.90
60723;DHT22;46574;52.818;6.516;2023-12-04T07:51:35;1.60;99.90
60723;DHT22;46574;52.818;6.516;2023-12-04T07:54:00;1.60;99.90
60723;DHT22;46574;52.818;6.516;2023-12-04T07:56:26;1.60;99.90
60723;DHT22;46574;52.818;6.516;2023-12-04T07:58:52;1.60;99.90
60723;DHT22;46574;52.818;6.516;2023-12-04T08:01:17;1.60;99.90
60723;DHT22;46574;52.818;6.516;2023-12-04T08:03:43;1.60;99.90
60723;DHT22;46574;52.818;6.516;2023-12-04T08:06:09;1.60;99.90
60723;DHT22;46574;52.818;6.516;2023-12-04T08:08:34;1.70;99.90
60723;DHT22;46574;52.818;6.516;2023-12-04T08:11:00;1.60;99.90
60723;DHT22;46574;52.818;6.516;2023-12-04T08:13:26;1.60;99.90
60723;DHT22;46574;52.818;6.516;2023-12-04T08:15:51;1.60;99.90
60723;DHT22;46574;52.818;6.516;2023-12-04T08:18:17;1.70;99.90
60723;DHT22;46574;52.818;6.516;2023-12-04T08:20:43;1.70;99.90
60723;DHT22;46574;52.818;6.516;2023-12-04T08:23:09;1.70;99.90
60723;DHT22;46574;52.818;6.516;2023-12-04T08:25:35;1.70;99.90
60723;DHT22;46574;52.818;6.516;2023-12-04T08:28:04;1.70;99.90
60723;DHT22;46574;52.818;6.516;2023-12-04T08:30:30;1.70;99.90
60723;DHT22;46574;52.818;6.516;2023-12-04T08:32:55;1.70;99.90
60723;DHT22;46574;52.818;6.516;2023-12-04T08:35:21;1.70;99.90
60723;DHT22;46574;52.818;6.516;2023-12-04T08:37:47;1.70;99.90
60723;DHT22;46574;52.818;6.516;2023-12-04T08:40:13;1.70;99.90
60723;DHT22;46574;52.818;6.516;2023-12-04T08:42:38;1.80;99.90
60723;DHT22;46574;52.818;6.516;2023-12-04T08:45:05;1.80;99.90
60723;DHT22;46574;52.818;6.516;2023-12-04T08:47:31;1.80;99.90
60723;DHT22;46574;52.818;6.516;2023-12-04T08:49:57;1.80;99.90
60723;DHT22;46574;52.818;6.516;2023-12-04T08:52:23;1.80;99.90
60723;DHT22;46574;52.818;6.516;2023-12-04T08:54:48;1.80;99.90
60723;DHT22;46574;52.818;6.516;2023-12-04T08:57:14;1.90;99.90
60723;DHT22;46574;52.818;6.516;2023-12-04T08:59:40;1.90;99.90
60723;DHT22;46574;52.818;6.516;2023-12-04T09:02:06;1.90;99.90
60723;DHT22;46574;52.818;6.516;2023-12-04T09:04:32;1.90;99.90
60723;DHT22;46574;52.818;6.516;2023-12-04T09:06:58;1.90;99.90
60723;DHT22;46574;52.818;6.516;2023-12-04T09:09:23;2.00;99.90
60723;DHT22;46574;52.818;6.516;2023-12-04T09:11:49;2.00;99.90
60723;DHT22;46574;52.818;6.516;2023-12-04T09:14:15;2.00;99.90
60723;DHT22;46574;52.818;6.516;2023-12-04T09:16:41;2.00;99.90
60723;DHT22;46574;52.818;6.516;2023-12-04T09:19:07;2.10;99.90
60723;DHT22;46574;52.818;6.516;2023-12-04T09:21:33;2.10;99.90
60723;DHT22;46574;52.818;6.516;2023-12-04T09:23:59;2.20;99.90
60723;DHT22;46574;52.818;6.516;2023-12-04T09:26:24;2.20;99.90
60723;DHT22;46574;52.818;6.516;2023-12-04T09:28:50;2.20;99.90
60723;DHT22;46574;52.818;6.516;2023-12-04T09:31:16;2.20;99.90
60723;DHT22;46574;52.818;6.516;2023-12-04T09:33:42;2.20;99.90
60723;DHT22;46574;52.818;6.516;2023-12-04T09:36:08;2.20;99.90
60723;DHT22;46574;52.818;6.516;2023-12-04T09:38:34;2.30;99.90
60723;DHT22;46574;52.818;6.516;2023-12-04T09:41:01;2.30;99.90
60723;DHT22;46574;52.818;6.516;2023-12-04T09:43:34;2.40;99.90
60723;DHT22;46574;52.818;6.516;2023-12-04T09:46:00;2.40;99.90
60723;DHT22;46574;52.818;6.516;2023-12-04T09:48:27;2.40;99.90
60723;DHT22;46574;52.818;6.516;2023-12-04T09:50:54;2.50;99.90
60723;DHT22;46574;52.818;6.516;2023-12-04T09:53:20;2.50;99.90
60723;DHT22;46574;52.818;6.516;2023-12-04T09:55:49;2.50;99.90
60723;DHT22;46574;52.818;6.516;2023-12-04T09:58:15;2.50;99.90
60723;DHT22;46574;52.818;6.516;2023-12-04T10:00:44;2.60;99.90
60723;DHT22;46574;52.818;6.516;2023-12-04T10:03:10;2.60;99.90
60723;DHT22;46574;52.818;6.516;2023-12-04T10:05:38;2.60;99.90
60723;DHT22;46574;52.818;6.516;2023-12-04T10:08:04;2.70;99.90
60723;DHT22;46574;52.818;6.516;2023-12-04T10:10:30;2.70;99.90
60723;DHT22;46574;52.818;6.516;2023-12-04T10:12:55;2.70;99.90
60723;DHT22;46574;52.818;6.516;2023-12-04T10:15:21;2.70;99.90
60723;DHT22;46574;52.818;6.516;2023-12-04T10:17:46;2.70;99.90
60723;DHT22;46574;52.818;6.516;2023-12-04T10:20:15;2.80;99.90
60723;DHT22;46574;52.818;6.516;2023-12-04T10:22:54;2.80;99.90
60723;DHT22;46574;52.818;6.516;2023-12-04T10:25:20;2.80;99.90
60723;DHT22;46574;52.818;6.516;2023-12-04T10:27:46;2.80;99.90
60723;DHT22;46574;52.818;6.516;2023-12-04T10:30:26;2.80;99.90
60723;DHT22;46574;52.818;6.516;2023-12-04T10:32:59;2.80;99.90
60723;DHT22;46574;52.818;6.516;2023-12-04T10:35:29;2.90;99.90
60723;DHT22;46574;52.818;6.516;2023-12-04T10:37:59;2.90;99.90
60723;DHT22;46574;52.818;6.516;2023-12-04T10:40:27;2.90;99.90
60723;DHT22;46574;52.818;6.516;2023-12-04T10:43:11;2.90;99.90
60723;DHT22;46574;52.818;6.516;2023-12-04T10:45:38;3.00;99.90
60723;DHT22;46574;52.818;6.516;2023-12-04T10:48:05;2.90;99.90
60723;DHT22;46574;52.818;6.516;2023-12-04T10:50:35;2.90;99.90
60723;DHT22;46574;52.818;6.516;2023-12-04T10:53:05;2.90;99.90
60723;DHT22;46574;52.818;6.516;2023-12-04T10:55:31;3.00;99.90
60723;DHT22;46574;52.818;6.516;2023-12-04T10:58:02;3.00;99.90
60723;DHT22;46574;52.818;6.516;2023-12-04T11:00:33;3.00;99.90
60723;DHT22;46574;52.818;6.516;2023-12-04T11:03:08;2.90;99.90
60723;DHT22;46574;52.818;6.516;2023-12-04T11:05:39;2.90;99.90
60723;DHT22;46574;52.818;6.516;2023-12-04T11:08:15;2.90;99.90
60723;DHT22;46574;52.818;6.516;2023-12-04T11:13:41;3.00;99.90
60723;DHT22;46574;52.818;6.516;2023-12-04T11:18:56;3.00;99.90
60723;DHT22;46574;52.818;6.516;2023-12-04T11:21:27;2.90;99.90
60723;DHT22;46574;52.818;6.516;2023-12-04T11:23:54;2.90;99.90
60723;DHT22;46574;52.818;6.516;2023-12-04T11:26:20;3.00;99.90
60723;DHT22;46574;52.818;6.516;2023-12-04T11:28:47;3.00;99.90
60723;DHT22;46574;52.818;6.516;2023-12-04T11:31:13;3.00;99.90
60723;DHT22;46574;52.818;6.516;2023-12-04T11:33:40;3.00;99.90
60723;DHT22;46574;52.818;6.516;2023-12-04T11:36:11;3.10;99.90
60723;DHT22;46574;52.818;6.516;2023-12-04T11:38:37;3.10;99.90
60723;DHT22;46574;52.818;6.516;2023-12-04T11:41:18;3.20;99.90
60723;DHT22;46574;52.818;6.516;2023-12-04T11:43:45;3.20;99.90
60723;DHT22;46574;52.818;6.516;2023-12-04T11:46:11;3.20;99.90
60723;DHT22;46574;52.818;6.516;2023-12-04T11:48:38;3.20;99.90
60723;DHT22;46574;52.818;6.516;2023-12-04T11:51:05;3.20;99.90
60723;DHT22;46574;52.818;6.516;2023-12-04T11:53:37;3.20;99.90
60723;DHT22;46574;52.818;6.516;2023-12-04T11:56:12;3.20;99.90
60723;DHT22;46574;52.818;6.516;2023-12-04T11:58:42;3.30;99.90
60723;DHT22;46574;52.818;6.516;2023-12-04T12:01:08;3.30;99.90
60723;DHT22;46574;52.818;6.516;2023-12-04T12:03:34;3.30;99.90
60723;DHT22;46574;52.818;6.516;2023-12-04T12:06:00;3.30;99.90
60723;DHT22;46574;52.818;6.516;2023-12-04T12:08:28;3.40;99.90
60723;DHT22;46574;52.818;6.516;2023-12-04T12:10:54;3.40;99.90
60723;DHT22;46574;52.818;6.516;2023-12-04T12:13:20;3.50;99.90
60723;DHT22;46574;52.818;6.516;2023-12-04T12:15:50;3.50;99.90
60723;DHT22;46574;52.818;6.516;2023-12-04T12:18:16;3.50;99.90
60723;DHT22;46574;52.818;6.516;2023-12-04T12:20:42;3.50;99.90
60723;DHT22;46574;52.818;6.516;2023-12-04T12:23:08;3.60;99.90
60723;DHT22;46574;52.818;6.516;2023-12-04T12:25:35;3.60;99.90
60723;DHT22;46574;52.818;6.516;2023-12-04T12:28:04;3.60;99.90
60723;DHT22;46574;52.818;6.516;2023-12-04T12:30:30;3.60;99.90
60723;DHT22;46574;52.818;6.516;2023-12-04T12:32:56;3.50;99.90
60723;DHT22;46574;52.818;6.516;2023-12-04T12:35:23;3.50;99.90
60723;DHT22;46574;52.818;6.516;2023-12-04T12:37:49;3.50;99.90
60723;DHT22;46574;52.818;6.516;2023-12-04T12:40:20;3.50;99.90
60723;DHT22;46574;52.818;6.516;2023-12-04T12:42:46;3.40;99.90
60723;DHT22;46574;52.818;6.516;2023-12-04T12:45:12;3.40;99.90
60723;DHT22;46574;52.818;6.516;2023-12-04T12:47:41;3.40;99.90
60723;DHT22;46574;52.818;6.516;2023-12-04T12:50:10;3.40;99.90
60723;DHT22;46574;52.818;6.516;2023-12-04T12:52:37;3.50;99.90
60723;DHT22;46574;52.818;6.516;2023-12-04T12:55:03;3.40;99.90
60723;DHT22;46574;52.818;6.516;2023-12-04T12:57:30;3.40;99.90
60723;DHT22;46574;52.818;6.516;2023-12-04T12:59:56;3.40;99.90
60723;DHT22;46574;52.818;6.516;2023-12-04T13:02:22;3.40;99.90
60723;DHT22;46574;52.818;6.516;2023-12-04T13:04:47;3.40;99.90
60723;DHT22;46574;52.818;6.516;2023-12-04T13:07:13;3.40;99.90
60723;DHT22;46574;52.818;6.516;2023-12-04T13:09:39;3.40;99.90
60723;DHT22;46574;52.818;6.516;2023-12-04T13:12:06;3.40;99.90
60723;DHT22;46574;52.818;6.516;2023-12-04T13:14:34;3.40;99.90
60723;DHT22;46574;52.818;6.516;2023-12-04T13:17:01;3.30;99.90
60723;DHT22;46574;52.818;6.516;2023-12-04T13:19:26;3.30;99.90
60723;DHT22;46574;52.818;6.516;2023-12-04T13:21:52;3.30;99.90
60723;DHT22;46574;52.818;6.516;2023-12-04T13:24:18;3.30;99.90
60723;DHT22;46574;52.818;6.516;2023-12-04T13:26:44;3.30;99.90
60723;DHT22;46574;52.818;6.516;2023-12-04T13:29:10;3.30;99.90
60723;DHT22;46574;52.818;6.516;2023-12-04T13:31:36;3.30;99.90
60723;DHT22;46574;52.818;6.516;2023-12-04T13:34:02;3.30;99.90
60723;DHT22;46574;52.818;6.516;2023-12-04T13:36:33;3.20;99.90
60723;DHT22;46574;52.818;6.516;2023-12-04T13:38:59;3.20;99.90
60723;DHT22;46574;52.818;6.516;2023-12-04T13:41:25;3.20;99.90
60723;DHT22;46574;52.818;6.516;2023-12-04T13:44:09;3.20;99.90
60723;DHT22;46574;52.818;6.516;2023-12-04T13:46:35;3.10;99.90
60723;DHT22;46574;52.818;6.516;2023-12-04T13:49:00;3.10;99.90
60723;DHT22;46574;52.818;6.516;2023-12-04T13:51:26;3.10;99.90
60723;DHT22;46574;52.818;6.516;2023-12-04T13:53:52;3.10;99.90
60723;DHT22;46574;52.818;6.516;2023-12-04T13:56:27;3.10;99.90
60723;DHT22;46574;52.818;6.516;2023-12-04T13:59:12;3.10;99.90
60723;DHT22;46574;52.818;6.516;2023-12-04T14:01:45;3.10;99.90
60723;DHT22;46574;52.818;6.516;2023-12-04T14:04:12;3.00;99.90
60723;DHT22;46574;52.818;6.516;2023-12-04T14:06:37;3.00;99.90
60723;DHT22;46574;52.818;6.516;2023-12-04T14:09:03;3.00;99.90
60723;DHT22;46574;52.818;6.516;2023-12-04T14:11:36;3.00;99.90
60723;DHT22;46574;52.818;6.516;2023-12-04T14:14:02;3.00;99.90
60723;DHT22;46574;52.818;6.516;2023-12-04T14:16:29;2.90;99.90
60723;DHT22;46574;52.818;6.516;2023-12-04T14:18:55;2.80;99.90
60723;DHT22;46574;52.818;6.516;2023-12-04T14:21:20;2.80;99.90
60723;DHT22;46574;52.818;6.516;2023-12-04T14:23:46;2.80;99.90
60723;DHT22;46574;52.818;6.516;2023-12-04T14:26:11;2.70;99.90
60723;DHT22;46574;52.818;6.516;2023-12-04T14:28:37;2.70;99.90
60723;DHT22;46574;52.818;6.516;2023-12-04T14:31:03;2.70;99.90
60723;DHT22;46574;52.818;6.516;2023-12-04T14:33:29;2.70;99.90
60723;DHT22;46574;52.818;6.516;2023-12-04T14:35:54;2.60;99.90
60723;DHT22;46574;52.818;6.516;2023-12-04T14:38:20;2.60;99.90
60723;DHT22;46574;52.818;6.516;2023-12-04T14:40:45;2.60;99.90
60723;DHT22;46574;52.818;6.516;2023-12-04T14:43:12;2.60;99.90
60723;DHT22;46574;52.818;6.516;2023-12-04T14:45:38;2.60;99.90
60723;DHT22;46574;52.818;6.516;2023-12-04T14:48:04;2.60;99.90
60723;DHT22;46574;52.818;6.516;2023-12-04T14:50:33;2.60;99.90
60723;DHT22;46574;52.818;6.516;2023-12-04T14:52:59;2.60;99.90
60723;DHT22;46574;52.818;6.516;2023-12-04T14:55:40;2.50;99.90
60723;DHT22;46574;52.818;6.516;2023-12-04T14:58:28;2.50;99.90
60723;DHT22;46574;52.818;6.516;2023-12-04T15:01:10;2.50;99.90
60723;DHT22;46574;52.818;6.516;2023-12-04T15:03:39;2.50;99.90
60723;DHT22;46574;52.818;6.516;2023-12-04T15:06:40;2.50;99.90
60723;DHT22;46574;52.818;6.516;2023-12-04T15:09:45;2.50;99.90
60723;DHT22;46574;52.818;6.516;2023-12-04T15:12:29;2.40;99.90
60723;DHT22;46574;52.818;6.516;2023-12-04T15:15:13;2.50;99.90
60723;DHT22;46574;52.818;6.516;2023-12-04T15:17:54;2.40;99.90
60723;DHT22;46574;52.818;6.516;2023-12-04T15:20:42;2.50;99.90
60723;DHT22;46574;52.818;6.516;2023-12-04T15:23:09;2.50;99.90
60723;DHT22;46574;52.818;6.516;2023-12-04T15:25:35;2.50;99.90
60723;DHT22;46574;52.818;6.516;2023-12-04T15:28:02;2.50;99.90
60723;DHT22;46574;52.818;6.516;2023-12-04T15:30:33;2.50;99.90
60723;DHT22;46574;52.818;6.516;2023-12-04T15:32:59;2.50;99.90
60723;DHT22;46574;52.818;6.516;2023-12-04T15:35:25;2.50;99.90
60723;DHT22;46574;52.818;6.516;2023-12-04T15:37:50;2.50;99.90
60723;DHT22;46574;52.818;6.516;2023-12-04T15:40:16;2.50;99.90
60723;DHT22;46574;52.818;6.516;2023-12-04T15:42:42;2.50;99.90
60723;DHT22;46574;52.818;6.516;2023-12-04T15:45:08;2.50;99.90
60723;DHT22;46574;52.818;6.516;2023-12-04T15:47:33;2.50;99.90
60723;DHT22;46574;52.818;6.516;2023-12-04T15:49:59;2.50;99.90